Time;durP1;ratioP1;P1;durP2;ratioP2;P2;SDS_P1;SDS_P2;PMS_P1;PMS_P2;Temp;Humidity;BMP_temperature;BMP_pressure;BME280_temperature;BME280_humidity;BME280_pressure;Samples;Min_cycle;Max_cycle;Signal;HPM_P1;HPM_P2
2021/12/23 00:00:48;;;;;;;53.97;26.73;;;1.40;99.90;;;;;;5079293;28;20186;-67
2021/12/23 00:03:14;;;;;;;57.83;26.50;;;1.30;99.90;;;;;;5089798;28;20659;-68
2021/12/23 00:05:40;;;;;;;47.83;24.43;;;1.30;99.90;;;;;;5069617;28;20185;-68
2021/12/23 00:08:06;;;;;;;54.23;24.67;;;1.20;99.90;;;;;;5085848;28;20546;-68
2021/12/23 00:10:32;;;;;;;54.90;26.87;;;1.00;99.90;;;;;;5037957;28;20225;-68
2021/12/23 00:12:57;;;;;;;43.60;22.70;;;0.90;99.90;;;;;;5065875;28;20195;-68
2021/12/23 00:18:16;;;;;;;45.90;22.63;;;0.90;99.90;;;;;;5072516;28;20541;-66
2021/12/23 00:25:47;;;;;;;52.03;26.70;;;1.00;99.90;;;;;;5090290;28;20184;-66
2021/12/23 00:28:13;;;;;;;47.97;25.77;;;1.20;99.90;;;;;;5075947;28;20226;-66
2021/12/23 00:30:38;;;;;;;59.27;26.53;;;1.00;99.90;;;;;;5075791;28;20216;-66
2021/12/23 00:33:04;;;;;;;54.03;28.40;;;0.80;99.90;;;;;;5070643;28;20238;-66
2021/12/23 00:35:30;;;;;;;50.77;25.50;;;0.90;99.90;;;;;;4721932;28;10000085;-68
2021/12/23 00:38:01;;;;;;;50.57;23.50;;;1.00;99.90;;;;;;5072632;28;20671;-68
2021/12/23 00:40:27;;;;;;;57.03;28.83;;;0.90;99.90;;;;;;5050483;28;20713;-69
2021/12/23 00:42:53;;;;;;;51.50;25.93;;;1.10;99.90;;;;;;5040212;28;20209;-68
2021/12/23 00:45:19;;;;;;;56.90;25.17;;;1.10;99.90;;;;;;5067319;28;20217;-69
2021/12/23 00:47:45;;;;;;;58.83;27.90;;;1.20;99.90;;;;;;5093873;28;20188;-68
2021/12/23 00:50:10;;;;;;;55.20;28.23;;;1.30;99.90;;;;;;5058316;28;20664;-69
2021/12/23 00:52:38;;;;;;;51.93;28.30;;;1.30;99.90;;;;;;5086741;28;20186;-68
2021/12/23 00:55:05;;;;;;;64.07;27.93;;;1.40;99.90;;;;;;5074278;28;20191;-68
2021/12/23 00:57:32;;;;;;;56.43;28.63;;;1.30;99.90;;;;;;5075716;28;20181;-68
2021/12/23 00:59:59;;;;;;;47.60;24.80;;;1.30;99.90;;;;;;5094041;28;20178;-68
2021/12/23 01:02:31;;;;;;;48.40;25.37;;;1.10;99.90;;;;;;5093319;28;20648;-69
2021/12/23 01:04:57;;;;;;;49.30;24.63;;;1.10;99.90;;;;;;5058357;28;20166;-69
2021/12/23 01:07:23;;;;;;;51.83;22.83;;;1.20;99.90;;;;;;5056592;28;20233;-68
2021/12/23 01:09:49;;;;;;;54.67;25.37;;;1.10;99.90;;;;;;5093114;28;20983;-68
2021/12/23 01:12:18;;;;;;;46.13;21.03;;;1.00;99.90;;;;;;5054658;28;20278;-68
2021/12/23 01:15:09;;;;;;;45.27;22.63;;;1.20;99.90;;;;;;5071907;28;20525;-68
2021/12/23 01:17:53;;;;;;;54.80;21.53;;;1.30;99.90;;;;;;5049342;28;20190;-68
2021/12/23 01:20:27;;;;;;;48.10;20.63;;;1.40;99.90;;;;;;5090010;28;20191;-68
2021/12/23 01:22:55;;;;;;;44.23;21.30;;;1.40;99.90;;;;;;5074210;28;20314;-68
2021/12/23 01:25:21;;;;;;;45.77;20.07;;;1.10;99.90;;;;;;5071378;28;20640;-68
2021/12/23 01:27:46;;;;;;;53.13;22.80;;;1.20;99.90;;;;;;5075084;28;20183;-68
2021/12/23 01:30:13;;;;;;;56.27;22.57;;;1.10;99.90;;;;;;5058381;28;20260;-68
2021/12/23 01:32:40;;;;;;;50.63;23.23;;;1.00;99.90;;;;;;5056837;28;20272;-68
2021/12/23 01:35:06;;;;;;;57.83;22.33;;;1.20;99.90;;;;;;5093353;28;20543;-68
2021/12/23 01:37:32;;;;;;;53.10;22.27;;;1.30;99.90;;;;;;5063641;28;20210;-69
2021/12/23 01:39:58;;;;;;;53.60;20.63;;;1.30;99.90;;;;;;5057929;28;20649;-68
2021/12/23 01:42:23;;;;;;;50.90;21.50;;;1.40;99.90;;;;;;5088952;28;20599;-68
2021/12/23 01:44:49;;;;;;;55.50;22.90;;;1.40;99.90;;;;;;5057529;28;20192;-68
2021/12/23 01:47:15;;;;;;;51.17;23.17;;;1.30;99.90;;;;;;5062238;28;20191;-68
2021/12/23 01:49:40;;;;;;;56.53;23.23;;;1.20;99.90;;;;;;5058287;28;20272;-68
2021/12/23 01:52:06;;;;;;;54.70;23.10;;;1.10;99.90;;;;;;5092940;28;20266;-68
2021/12/23 01:54:32;;;;;;;56.10;23.47;;;1.10;99.90;;;;;;5058203;28;20193;-68
2021/12/23 01:56:58;;;;;;;58.80;25.27;;;1.20;99.90;;;;;;5049859;28;20666;-68
2021/12/23 01:59:24;;;;;;;51.10;20.97;;;1.30;99.90;;;;;;5084588;28;20222;-68
2021/12/23 02:01:50;;;;;;;54.13;21.40;;;1.30;99.90;;;;;;5092084;28;20647;-68
2021/12/23 02:04:16;;;;;;;61.07;23.43;;;1.20;99.90;;;;;;5074706;28;20200;-68
2021/12/23 02:06:41;;;;;;;68.80;24.10;;;1.20;99.90;;;;;;5057470;28;20653;-68
2021/12/23 02:09:07;;;;;;;49.47;24.63;;;1.30;99.90;;;;;;5092851;28;20745;-68
2021/12/23 02:11:33;;;;;;;55.97;20.80;;;1.40;99.90;;;;;;5071302;28;20635;-68
2021/12/23 02:13:58;;;;;;;57.80;26.20;;;1.30;99.90;;;;;;5089594;28;20188;-68
2021/12/23 02:16:24;;;;;;;55.30;24.27;;;1.20;99.90;;;;;;5074752;28;20242;-68
2021/12/23 02:18:49;;;;;;;53.67;23.93;;;1.20;99.90;;;;;;5073912;28;20203;-68
2021/12/23 02:21:15;;;;;;;51.53;22.50;;;1.20;99.90;;;;;;5075254;28;20280;-68
2021/12/23 02:23:41;;;;;;;52.60;21.70;;;1.30;99.90;;;;;;5074907;28;20634;-68
2021/12/23 02:26:07;;;;;;;56.37;20.30;;;1.30;99.90;;;;;;5074022;28;20190;-68
2021/12/23 02:28:33;;;;;;;42.90;20.60;;;1.30;99.90;;;;;;5074452;28;20221;-68
2021/12/23 02:30:59;;;;;;;47.03;21.57;;;1.40;99.90;;;;;;5092045;28;20194;-68
2021/12/23 02:33:26;;;;;;;46.57;22.10;;;1.50;99.90;;;;;;5057760;28;20542;-68
2021/12/23 02:35:55;;;;;;;48.03;21.43;;;1.70;99.90;;;;;;5076564;28;20696;-68
2021/12/23 02:38:21;;;;;;;56.73;22.23;;;1.60;99.90;;;;;;5078556;28;20211;-69
2021/12/23 02:40:47;;;;;;;45.30;19.40;;;1.60;99.90;;;;;;5061924;28;20196;-68
2021/12/23 02:43:22;;;;;;;48.33;21.50;;;1.60;99.90;;;;;;5096213;28;20560;-68
2021/12/23 02:45:50;;;;;;;49.83;21.57;;;1.60;99.90;;;;;;5077121;28;20169;-69
2021/12/23 02:48:19;;;;;;;51.73;20.67;;;1.80;99.90;;;;;;5096316;28;20189;-68
2021/12/23 02:50:49;;;;;;;49.23;21.90;;;1.90;99.90;;;;;;5096495;28;20262;-68
2021/12/23 02:53:15;;;;;;;48.60;20.83;;;1.90;99.90;;;;;;5095912;28;20194;-68
2021/12/23 02:55:41;;;;;;;48.57;21.17;;;1.90;99.90;;;;;;5078406;28;20177;-68
2021/12/23 02:58:09;;;;;;;55.20;22.77;;;1.80;99.90;;;;;;5070241;28;20322;-68
2021/12/23 03:00:36;;;;;;;49.67;22.60;;;1.60;99.90;;;;;;5082464;28;20187;-68
2021/12/23 03:03:02;;;;;;;45.17;20.90;;;1.50;99.90;;;;;;5075779;28;20196;-68
2021/12/23 03:05:28;;;;;;;56.47;22.30;;;1.70;99.90;;;;;;5059207;28;20538;-68
2021/12/23 03:07:53;;;;;;;55.00;22.57;;;1.80;99.90;;;;;;5063606;28;20200;-68
2021/12/23 03:10:22;;;;;;;43.83;21.17;;;1.90;99.90;;;;;;5065450;28;20234;-68
2021/12/23 03:12:49;;;;;;;54.57;22.10;;;1.90;99.90;;;;;;5089242;28;20239;-68
2021/12/23 03:15:14;;;;;;;51.33;21.13;;;1.80;99.90;;;;;;5088852;28;20194;-68
2021/12/23 03:17:40;;;;;;;56.93;23.40;;;1.80;99.90;;;;;;5071634;28;20183;-68
2021/12/23 03:20:06;;;;;;;52.00;21.30;;;1.60;99.90;;;;;;5060035;28;20564;-68
2021/12/23 03:22:32;;;;;;;44.83;20.53;;;1.40;99.90;;;;;;5044271;28;20198;-68
2021/12/23 03:24:58;;;;;;;54.57;21.20;;;1.60;99.90;;;;;;5077254;28;20551;-70
2021/12/23 03:27:24;;;;;;;60.67;23.50;;;1.80;99.90;;;;;;5095607;28;20197;-68
2021/12/23 03:29:49;;;;;;;45.97;21.03;;;1.70;99.90;;;;;;5063407;28;20217;-68
2021/12/23 03:32:15;;;;;;;54.57;23.33;;;1.60;99.90;;;;;;5058331;28;20190;-68
2021/12/23 03:34:41;;;;;;;50.50;20.87;;;1.60;99.90;;;;;;5093646;28;20177;-68
2021/12/23 03:37:07;;;;;;;44.30;19.73;;;1.60;99.90;;;;;;5075970;28;20224;-68
2021/12/23 03:39:33;;;;;;;49.97;21.87;;;1.70;99.90;;;;;;5044561;28;20195;-68
2021/12/23 03:41:58;;;;;;;50.73;21.03;;;1.60;99.90;;;;;;5059205;28;20635;-68
2021/12/23 03:44:24;;;;;;;48.23;19.37;;;1.60;99.90;;;;;;5074893;28;20188;-68
2021/12/23 03:46:50;;;;;;;45.90;21.27;;;1.50;99.90;;;;;;5092867;28;21101;-68
2021/12/23 03:49:15;;;;;;;49.63;20.83;;;1.60;99.90;;;;;;5080109;28;20219;-68
2021/12/23 03:51:41;;;;;;;46.87;18.63;;;1.60;99.90;;;;;;5091613;28;20648;-68
2021/12/23 03:54:07;;;;;;;61.37;23.33;;;1.60;99.90;;;;;;5058666;28;20182;-68
2021/12/23 03:56:33;;;;;;;39.90;20.57;;;1.70;99.90;;;;;;5060866;28;20280;-69
2021/12/23 03:58:59;;;;;;;51.23;23.67;;;1.80;99.90;;;;;;5050195;28;20218;-68
2021/12/23 04:01:29;;;;;;;45.20;18.60;;;1.80;99.90;;;;;;5095245;28;20641;-67
2021/12/23 04:03:55;;;;;;;52.33;21.27;;;1.70;99.90;;;;;;5094959;28;20178;-68
2021/12/23 04:06:21;;;;;;;45.10;21.03;;;1.60;99.90;;;;;;5060319;28;20524;-68
2021/12/23 04:08:48;;;;;;;40.13;18.53;;;1.60;99.90;;;;;;5076084;28;20239;-68
2021/12/23 04:11:14;;;;;;;55.60;20.23;;;1.60;99.90;;;;;;5070816;28;20545;-68
2021/12/23 04:13:40;;;;;;;54.43;21.63;;;1.50;99.90;;;;;;5082125;28;20182;-68
2021/12/23 04:16:06;;;;;;;50.50;21.03;;;1.60;99.90;;;;;;5076651;28;20189;-68
2021/12/23 04:18:33;;;;;;;53.70;19.70;;;1.60;99.90;;;;;;5075257;28;20233;-68
2021/12/23 04:20:58;;;;;;;51.40;21.53;;;1.70;99.90;;;;;;5073808;28;20192;-68
2021/12/23 04:23:29;;;;;;;45.07;18.17;;;1.70;99.90;;;;;;5040760;28;20652;-68
2021/12/23 04:25:56;;;;;;;57.07;21.97;;;1.70;99.90;;;;;;5057286;28;20622;-68
2021/12/23 04:28:24;;;;;;;50.87;20.03;;;1.70;99.90;;;;;;5040424;28;20196;-68
2021/12/23 04:30:50;;;;;;;43.57;19.53;;;1.70;99.90;;;;;;5063241;28;20191;-68
2021/12/23 04:33:15;;;;;;;57.07;21.20;;;1.70;99.90;;;;;;5094397;28;20544;-68
2021/12/23 04:35:41;;;;;;;52.80;20.70;;;1.60;99.90;;;;;;5072763;28;20223;-68
2021/12/23 04:38:07;;;;;;;46.43;19.50;;;1.60;99.90;;;;;;5072016;28;20240;-68
2021/12/23 04:40:34;;;;;;;49.50;20.23;;;1.80;99.90;;;;;;5042675;28;20540;-68
2021/12/23 04:43:09;;;;;;;48.10;20.50;;;2.00;99.90;;;;;;5093700;28;20192;-68
2021/12/23 04:45:35;;;;;;;48.47;19.30;;;1.90;99.90;;;;;;5093856;28;20587;-68
2021/12/23 04:48:01;;;;;;;44.47;21.17;;;2.00;99.90;;;;;;5075861;28;20189;-68
2021/12/23 04:50:27;;;;;;;40.13;17.87;;;1.80;99.90;;;;;;5093552;28;21710;-68
2021/12/23 04:52:52;;;;;;;46.60;20.93;;;2.00;99.90;;;;;;5041451;28;20224;-68
2021/12/23 04:55:19;;;;;;;42.27;19.60;;;2.00;99.90;;;;;;5069243;28;20241;-69
2021/12/23 04:57:45;;;;;;;46.80;17.63;;;2.10;99.90;;;;;;5075169;28;20687;-68
2021/12/23 05:00:17;;;;;;;40.87;17.83;;;2.20;99.90;;;;;;5058972;28;20208;-68
2021/12/23 05:02:43;;;;;;;44.07;18.53;;;2.20;99.90;;;;;;5075810;28;20203;-67
2021/12/23 05:05:09;;;;;;;45.80;18.90;;;2.20;99.90;;;;;;5075637;28;20633;-68
2021/12/23 05:07:35;;;;;;;42.87;17.00;;;2.20;99.90;;;;;;5045933;28;20191;-68
2021/12/23 05:10:01;;;;;;;40.43;17.17;;;2.30;99.90;;;;;;5058564;28;20657;-68
2021/12/23 05:12:28;;;;;;;47.63;18.83;;;2.40;99.90;;;;;;5076214;28;20180;-68
2021/12/23 05:14:54;;;;;;;50.73;22.47;;;2.30;99.90;;;;;;5074093;28;20188;-68
2021/12/23 05:17:22;;;;;;;49.10;22.30;;;2.30;99.90;;;;;;5071761;28;20242;-68
2021/12/23 05:19:48;;;;;;;45.07;20.30;;;2.40;99.90;;;;;;5041522;28;20211;-67
2021/12/23 05:22:14;;;;;;;44.80;17.17;;;2.50;99.90;;;;;;5075363;28;20542;-68
2021/12/23 05:24:39;;;;;;;51.83;20.77;;;2.30;99.90;;;;;;5093404;28;20191;-68
2021/12/23 05:27:05;;;;;;;45.30;19.57;;;2.30;99.90;;;;;;5092757;28;20191;-68
2021/12/23 05:29:31;;;;;;;48.57;20.03;;;2.40;99.90;;;;;;5089888;28;20195;-68
2021/12/23 05:31:56;;;;;;;50.53;19.60;;;2.40;99.90;;;;;;5057824;28;20219;-67
2021/12/23 05:34:22;;;;;;;48.97;18.37;;;2.50;99.90;;;;;;5075175;28;20194;-68
2021/12/23 05:36:48;;;;;;;46.43;20.00;;;2.60;99.90;;;;;;5046890;28;20265;-68
2021/12/23 05:39:13;;;;;;;42.77;20.57;;;2.60;99.90;;;;;;5059577;28;20219;-68
2021/12/23 05:41:39;;;;;;;42.63;18.37;;;2.60;99.90;;;;;;5057090;28;20647;-68
2021/12/23 05:44:05;;;;;;;49.17;20.53;;;2.50;99.90;;;;;;5092611;28;20313;-68
2021/12/23 05:46:31;;;;;;;44.13;18.63;;;2.50;99.90;;;;;;5059077;28;20267;-68
2021/12/23 05:48:57;;;;;;;49.70;19.83;;;2.40;99.90;;;;;;5076732;28;20189;-68
2021/12/23 05:51:22;;;;;;;49.67;19.20;;;2.40;99.90;;;;;;5050303;28;20188;-68
2021/12/23 05:53:48;;;;;;;48.37;20.47;;;2.50;99.90;;;;;;5055922;28;20219;-68
2021/12/23 05:56:14;;;;;;;37.73;18.03;;;2.40;99.90;;;;;;5072434;28;20253;-68
2021/12/23 05:58:40;;;;;;;39.73;18.97;;;2.70;99.90;;;;;;5039025;28;20213;-68
2021/12/23 06:01:05;;;;;;;43.30;20.13;;;2.50;99.90;;;;;;5073917;28;20668;-68
2021/12/23 06:03:31;;;;;;;41.53;18.93;;;2.40;99.90;;;;;;5085343;28;20181;-68
2021/12/23 06:05:57;;;;;;;42.87;19.23;;;2.50;99.90;;;;;;5091918;28;20176;-68
2021/12/23 06:08:23;;;;;;;40.37;17.03;;;2.50;99.90;;;;;;5047278;28;20189;-67
2021/12/23 06:10:48;;;;;;;36.10;17.53;;;2.50;99.90;;;;;;5068888;28;20573;-68
2021/12/23 06:13:14;;;;;;;38.27;19.00;;;2.40;99.90;;;;;;5074333;28;20359;-68
2021/12/23 06:15:40;;;;;;;43.73;18.73;;;2.50;99.90;;;;;;5057527;28;20743;-68
2021/12/23 06:18:05;;;;;;;45.60;18.13;;;2.50;99.90;;;;;;5058321;28;20185;-68
2021/12/23 06:20:31;;;;;;;51.30;21.13;;;2.50;99.90;;;;;;5068112;28;20221;-68
2021/12/23 06:22:57;;;;;;;42.13;18.10;;;2.50;99.90;;;;;;5088824;28;20191;-68
2021/12/23 06:25:22;;;;;;;33.90;16.60;;;2.60;99.90;;;;;;5058474;28;20268;-68
2021/12/23 06:27:48;;;;;;;41.47;18.43;;;2.70;99.90;;;;;;5056873;28;20192;-68
2021/12/23 06:30:19;;;;;;;42.93;18.33;;;2.70;99.90;;;;;;5063555;28;20190;-68
2021/12/23 06:32:48;;;;;;;44.03;18.57;;;2.70;99.90;;;;;;5088560;28;20180;-68
2021/12/23 06:35:14;;;;;;;42.77;17.60;;;2.80;99.90;;;;;;5092056;28;20191;-67
2021/12/23 06:37:40;;;;;;;37.97;18.37;;;3.20;99.90;;;;;;5066934;28;20288;-68
2021/12/23 06:40:07;;;;;;;36.13;17.03;;;3.50;99.90;;;;;;5070917;28;20224;-68
2021/12/23 06:42:33;;;;;;;37.20;16.97;;;3.30;99.90;;;;;;5074384;28;20196;-68
2021/12/23 06:44:59;;;;;;;43.63;19.63;;;3.10;99.90;;;;;;5073914;28;20196;-68
2021/12/23 06:47:25;;;;;;;42.27;18.27;;;3.00;99.90;;;;;;5074279;28;20603;-68
2021/12/23 06:49:50;;;;;;;37.67;19.33;;;2.80;99.90;;;;;;5079192;28;20203;-68
2021/12/23 06:52:16;;;;;;;39.80;19.70;;;2.90;99.90;;;;;;5082329;28;20195;-67
2021/12/23 06:54:48;;;;;;;48.73;20.53;;;3.00;99.90;;;;;;5092405;28;20272;-68
2021/12/23 06:57:14;;;;;;;40.80;18.07;;;3.10;99.90;;;;;;5092085;28;20582;-67
2021/12/23 06:59:40;;;;;;;38.13;18.07;;;3.10;99.90;;;;;;5056908;28;20674;-68
2021/12/23 07:02:06;;;;;;;39.40;18.10;;;3.10;99.90;;;;;;5074895;28;20231;-67
2021/12/23 07:04:33;;;;;;;40.50;17.03;;;3.10;99.90;;;;;;5056949;28;20196;-68
2021/12/23 07:07:10;;;;;;;43.77;21.30;;;3.00;99.90;;;;;;5092414;28;20177;-67
2021/12/23 07:09:40;;;;;;;39.27;17.67;;;3.00;99.90;;;;;;5064480;28;20211;-68
2021/12/23 07:12:07;;;;;;;37.67;17.93;;;3.00;99.90;;;;;;5091985;28;20296;-68
2021/12/23 07:14:34;;;;;;;33.20;16.57;;;3.10;99.90;;;;;;5073757;28;20188;-68
2021/12/23 07:16:59;;;;;;;37.57;16.17;;;3.10;99.90;;;;;;5092105;28;20219;-68
2021/12/23 07:19:25;;;;;;;37.93;16.83;;;3.10;99.90;;;;;;5057367;28;20236;-67
2021/12/23 07:21:51;;;;;;;46.33;17.60;;;3.00;99.90;;;;;;5093536;28;20219;-68
2021/12/23 07:24:17;;;;;;;35.87;17.73;;;3.00;99.90;;;;;;5077498;28;20188;-67
2021/12/23 07:26:43;;;;;;;41.27;18.07;;;3.00;99.90;;;;;;5071798;28;20185;-68
2021/12/23 07:29:09;;;;;;;39.63;17.23;;;3.00;99.90;;;;;;5054998;28;20284;-67
2021/12/23 07:31:34;;;;;;;38.77;16.33;;;3.00;99.90;;;;;;5090594;28;20271;-67
2021/12/23 07:34:00;;;;;;;35.23;18.17;;;3.00;99.90;;;;;;5089740;28;20185;-67
2021/12/23 07:36:27;;;;;;;33.70;16.90;;;3.10;99.90;;;;;;5060306;28;20545;-68
2021/12/23 07:38:54;;;;;;;37.57;18.13;;;3.10;99.90;;;;;;5076110;28;20216;-68
2021/12/23 07:41:21;;;;;;;35.30;17.27;;;3.10;99.90;;;;;;5060365;28;20189;-67
2021/12/23 07:43:59;;;;;;;37.17;17.47;;;3.20;99.90;;;;;;5088579;28;20268;-67
2021/12/23 07:46:27;;;;;;;34.50;15.80;;;3.20;99.90;;;;;;5059303;28;20200;-67
2021/12/23 07:48:53;;;;;;;41.93;17.30;;;3.30;99.90;;;;;;5077183;28;20197;-67
2021/12/23 07:51:19;;;;;;;44.53;18.17;;;3.30;99.90;;;;;;5063851;28;20619;-67
2021/12/23 07:53:45;;;;;;;38.23;16.63;;;3.30;99.90;;;;;;5085444;28;20189;-67
2021/12/23 07:56:11;;;;;;;35.03;16.07;;;3.30;99.90;;;;;;5057095;28;20238;-67
2021/12/23 07:58:37;;;;;;;37.50;17.27;;;3.30;99.90;;;;;;5057477;28;20216;-67
2021/12/23 08:01:03;;;;;;;44.80;17.53;;;3.30;99.90;;;;;;5076755;28;20217;-67
2021/12/23 08:03:29;;;;;;;36.03;17.30;;;3.40;99.90;;;;;;5071994;28;20190;-67
2021/12/23 08:05:55;;;;;;;33.73;16.67;;;3.40;99.90;;;;;;5086164;28;20196;-67
2021/12/23 08:08:20;;;;;;;33.63;15.43;;;3.50;99.90;;;;;;5092445;28;20191;-67
2021/12/23 08:10:48;;;;;;;38.43;16.97;;;3.50;99.90;;;;;;5059588;28;20192;-67
2021/12/23 08:13:15;;;;;;;36.27;18.90;;;3.50;99.90;;;;;;5082355;28;20271;-67
2021/12/23 08:15:41;;;;;;;33.13;18.33;;;3.50;99.90;;;;;;5077169;28;20185;-67
2021/12/23 08:18:06;;;;;;;35.77;18.53;;;3.60;99.90;;;;;;5094211;28;20194;-67
2021/12/23 08:20:32;;;;;;;31.73;16.67;;;3.60;99.90;;;;;;5092870;28;20276;-67
2021/12/23 08:22:58;;;;;;;36.60;17.70;;;3.60;99.90;;;;;;5042756;28;20231;-67
2021/12/23 08:25:24;;;;;;;35.50;18.43;;;3.60;99.90;;;;;;5062184;28;20193;-67
2021/12/23 08:27:50;;;;;;;39.47;18.07;;;3.60;99.90;;;;;;5087752;28;20655;-67
2021/12/23 08:30:18;;;;;;;37.03;17.77;;;3.70;99.90;;;;;;5075887;28;20203;-67
2021/12/23 08:32:45;;;;;;;34.57;16.57;;;3.80;99.90;;;;;;5076093;28;20226;-67
2021/12/23 08:35:11;;;;;;;31.30;16.83;;;3.90;99.90;;;;;;5076742;28;20185;-67
2021/12/23 08:37:45;;;;;;;39.77;16.07;;;3.90;99.90;;;;;;5094114;28;20188;-67
2021/12/23 08:40:14;;;;;;;32.77;16.63;;;3.90;99.90;;;;;;5076220;28;20212;-67
2021/12/23 08:42:39;;;;;;;36.47;16.67;;;3.90;99.90;;;;;;5051736;28;20181;-67
2021/12/23 08:45:07;;;;;;;36.17;18.30;;;4.00;99.90;;;;;;5063591;28;20267;-67
2021/12/23 08:47:33;;;;;;;38.53;15.23;;;4.00;99.90;;;;;;5059592;28;20641;-67
2021/12/23 08:50:05;;;;;;;29.70;14.60;;;4.20;99.90;;;;;;5076141;28;20715;-67
2021/12/23 08:52:35;;;;;;;29.30;15.93;;;4.30;99.90;;;;;;5061287;28;20195;-67
2021/12/23 08:55:02;;;;;;;36.20;16.70;;;4.30;99.90;;;;;;5075670;28;20188;-67
2021/12/23 08:57:27;;;;;;;30.20;16.40;;;4.30;99.90;;;;;;5040941;28;20234;-66
2021/12/23 08:59:53;;;;;;;36.27;18.33;;;4.40;99.90;;;;;;5044979;28;20208;-66
2021/12/23 09:02:18;;;;;;;37.33;15.70;;;4.50;99.90;;;;;;5072095;28;20192;-67
2021/12/23 09:04:47;;;;;;;34.10;16.27;;;4.60;99.90;;;;;;5075033;28;20789;-66
2021/12/23 09:07:13;;;;;;;30.03;15.87;;;4.70;99.90;;;;;;5084205;28;20189;-66
2021/12/23 09:09:39;;;;;;;34.37;16.57;;;4.80;99.90;;;;;;5056582;28;20197;-66
2021/12/23 09:12:07;;;;;;;34.73;15.73;;;4.90;99.90;;;;;;5067422;28;20193;-67
2021/12/23 09:14:33;;;;;;;35.83;16.23;;;5.00;99.90;;;;;;5058996;28;20216;-66
2021/12/23 09:17:00;;;;;;;31.20;15.17;;;4.90;99.90;;;;;;5093574;28;20212;-66
2021/12/23 09:19:26;;;;;;;30.83;18.07;;;5.20;99.90;;;;;;5062982;28;20339;-67
2021/12/23 09:21:52;;;;;;;34.90;15.93;;;5.10;99.90;;;;;;5058846;28;20210;-66
2021/12/23 09:24:20;;;;;;;38.97;19.60;;;5.30;99.90;;;;;;5075573;28;20184;-66
2021/12/23 09:26:55;;;;;;;28.63;14.77;;;5.60;99.90;;;;;;5093301;28;20307;-66
2021/12/23 09:34:53;;;;;;;36.57;16.93;;;5.20;99.90;;;;;;5073309;28;20196;-65
2021/12/23 09:37:19;;;;;;;38.20;16.57;;;5.30;99.90;;;;;;5074133;28;20181;-66
2021/12/23 09:39:52;;;;;;;37.20;16.80;;;5.00;99.90;;;;;;5076510;28;20616;-66
2021/12/23 09:42:23;;;;;;;38.30;17.10;;;5.00;99.90;;;;;;5074658;28;20255;-65
2021/12/23 09:44:49;;;;;;;33.60;17.40;;;5.20;99.90;;;;;;5048876;28;20555;-66
2021/12/23 09:47:16;;;;;;;32.00;17.13;;;5.40;99.90;;;;;;5071997;28;20185;-66
2021/12/23 09:49:42;;;;;;;43.33;19.90;;;5.40;99.90;;;;;;5037626;28;20212;-66
2021/12/23 09:52:08;;;;;;;31.47;15.87;;;5.50;99.90;;;;;;5022508;28;20636;-66
2021/12/23 09:54:38;;;;;;;49.47;23.77;;;5.30;99.90;;;;;;5071396;28;20220;-66
2021/12/23 09:57:04;;;;;;;37.00;17.77;;;5.30;99.90;;;;;;5089004;28;20185;-66
2021/12/23 09:59:31;;;;;;;38.50;20.50;;;5.30;99.90;;;;;;5067644;28;20688;-66
2021/12/23 10:01:57;;;;;;;40.80;21.30;;;5.40;99.90;;;;;;5092923;28;20188;-66
2021/12/23 10:04:22;;;;;;;39.13;21.50;;;5.50;99.90;;;;;;5063737;28;20219;-65
2021/12/23 10:06:50;;;;;;;42.70;18.97;;;5.60;99.90;;;;;;5073657;28;20185;-65
2021/12/23 10:09:36;;;;;;;34.43;21.53;;;5.50;99.90;;;;;;5073382;28;20726;-65
2021/12/23 10:31:41;;;;;;;40.00;18.03;;;6.20;99.90;;;;;;5091754;28;20207;-65
2021/12/23 10:37:19;;;;;;;31.23;18.23;;;6.10;99.90;;;;;;5080721;28;20230;-66
2021/12/23 10:39:50;;;;;;;39.00;18.80;;;6.20;99.90;;;;;;5057755;28;20217;-67
2021/12/23 10:42:24;;;;;;;34.47;20.07;;;6.20;99.90;;;;;;5073435;28;20189;-65
2021/12/23 10:44:52;;;;;;;35.23;17.67;;;6.00;99.90;;;;;;5072654;28;20232;-68
2021/12/23 10:47:54;;;;;;;36.87;19.67;;;6.00;99.90;;;;;;5090085;28;20177;-65
2021/12/23 10:50:28;;;;;;;38.67;18.77;;;5.80;99.90;;;;;;5087883;28;20176;-64
2021/12/23 10:53:06;;;;;;;41.03;20.30;;;5.90;99.90;;;;;;5088816;28;20174;-64
2021/12/23 10:58:17;;;;;;;40.43;18.83;;;6.00;99.90;;;;;;5063711;28;20220;-64
2021/12/23 11:00:49;;;;;;;35.47;20.87;;;6.10;99.90;;;;;;5083478;28;20252;-64
2021/12/23 11:06:07;;;;;;;31.97;16.73;;;6.00;99.90;;;;;;5077408;28;21770;-64
2021/12/23 11:11:42;;;;;;;31.70;16.83;;;5.90;99.90;;;;;;5096137;28;20188;-64
2021/12/23 11:38:49;;;;;;;36.13;19.63;;;6.30;99.90;;;;;;5088139;28;20228;-64
2021/12/23 11:43:53;;;;;;;37.37;17.97;;;6.50;99.90;;;;;;5090359;28;20267;-63
2021/12/23 11:46:37;;;;;;;40.27;20.13;;;6.60;99.90;;;;;;5058885;28;20626;-63
2021/12/23 11:49:07;;;;;;;37.70;19.03;;;6.70;99.90;;;;;;5073478;28;20670;-63
2021/12/23 11:51:46;;;;;;;33.57;17.10;;;6.70;99.90;;;;;;5057350;28;20189;-63
2021/12/23 11:54:15;;;;;;;38.40;20.67;;;6.60;99.90;;;;;;5094345;28;20188;-63
2021/12/23 11:56:50;;;;;;;36.07;19.47;;;6.50;99.90;;;;;;5077112;28;20188;-63
2021/12/23 11:59:18;;;;;;;41.37;19.73;;;6.50;99.90;;;;;;5074398;28;20208;-63
2021/12/23 12:01:52;;;;;;;44.13;19.43;;;6.70;99.90;;;;;;5044732;28;20221;-63
2021/12/23 12:04:29;;;;;;;38.27;19.80;;;7.00;99.90;;;;;;5072786;28;20234;-63
2021/12/23 12:06:56;;;;;;;35.10;18.77;;;7.10;99.90;;;;;;5080542;28;20507;-66
2021/12/23 12:09:27;;;;;;;38.40;19.60;;;7.20;99.90;;;;;;5084616;28;20200;-63
2021/12/23 12:11:59;;;;;;;45.23;20.77;;;7.20;99.90;;;;;;5079408;28;20196;-64
2021/12/23 12:14:41;;;;;;;33.87;18.93;;;7.20;99.90;;;;;;5082776;28;20192;-65
2021/12/23 12:17:25;;;;;;;38.33;17.90;;;7.20;99.90;;;;;;5052585;28;20185;-64
2021/12/23 12:20:08;;;;;;;34.60;17.90;;;7.20;99.90;;;;;;5057626;28;20220;-64
2021/12/23 12:23:07;;;;;;;38.93;18.27;;;7.20;99.90;;;;;;5057449;28;20461;-64
2021/12/23 12:25:40;;;;;;;41.10;19.43;;;7.20;99.90;;;;;;5091561;28;20638;-64
2021/12/23 12:28:06;;;;;;;43.10;19.37;;;7.30;99.90;;;;;;5094401;28;20659;-64
2021/12/23 12:30:51;;;;;;;40.47;20.77;;;7.40;99.90;;;;;;5093950;28;20188;-64
2021/12/23 12:33:25;;;;;;;36.17;18.47;;;7.30;99.90;;;;;;5093981;28;20530;-65
2021/12/23 12:36:06;;;;;;;42.33;19.33;;;7.40;99.90;;;;;;5086752;28;20176;-64
2021/12/23 12:38:52;;;;;;;37.00;20.10;;;7.40;99.90;;;;;;5073196;28;20215;-65
2021/12/23 12:41:23;;;;;;;39.90;21.40;;;7.40;99.90;;;;;;5076099;28;20237;-64
2021/12/23 12:44:04;;;;;;;39.33;20.10;;;7.10;99.90;;;;;;5078396;28;20184;-65
2021/12/23 12:46:37;;;;;;;39.40;19.57;;;7.10;99.90;;;;;;5068044;28;20226;-65
2021/12/23 12:49:13;;;;;;;50.17;22.47;;;6.90;99.90;;;;;;5094214;28;20188;-65
2021/12/23 12:51:41;;;;;;;42.67;20.83;;;6.90;99.90;;;;;;5075903;28;20200;-64
2021/12/23 12:54:12;;;;;;;34.83;19.60;;;6.80;99.90;;;;;;5083969;28;20189;-64
2021/12/23 12:56:51;;;;;;;44.63;19.37;;;6.60;99.90;;;;;;5075094;28;20627;-64
2021/12/23 12:59:20;;;;;;;37.53;19.93;;;6.60;99.90;;;;;;5084488;28;20213;-64
2021/12/23 13:01:48;;;;;;;38.00;20.10;;;6.70;99.90;;;;;;5062661;28;20235;-64
2021/12/23 13:04:29;;;;;;;35.67;18.63;;;6.80;99.90;;;;;;5087497;28;20177;-65
2021/12/23 13:06:59;;;;;;;37.17;18.70;;;6.80;99.90;;;;;;5074604;28;20216;-64
2021/12/23 13:09:36;;;;;;;37.17;17.90;;;6.90;99.90;;;;;;5056272;28;20195;-63
2021/12/23 13:12:04;;;;;;;32.73;18.13;;;7.00;99.90;;;;;;5066438;28;20211;-63
2021/12/23 13:15:15;;;;;;;33.53;17.23;;;7.00;99.90;;;;;;5093411;28;20195;-63
2021/12/23 13:17:44;;;;;;;30.67;18.13;;;7.10;99.90;;;;;;5074976;28;20181;-64
2021/12/23 13:20:10;;;;;;;34.27;18.83;;;6.90;99.90;;;;;;5063893;28;20212;-63
2021/12/23 13:22:38;;;;;;;37.53;18.37;;;6.80;99.90;;;;;;5093741;28;20219;-64
2021/12/23 13:25:05;;;;;;;35.23;18.07;;;6.90;99.90;;;;;;5093496;28;20706;-63
2021/12/23 13:27:31;;;;;;;35.67;17.77;;;7.00;99.90;;;;;;5075065;28;20225;-64
2021/12/23 13:30:09;;;;;;;37.00;18.90;;;6.90;99.90;;;;;;5042678;28;20200;-64
2021/12/23 13:32:35;;;;;;;32.53;17.73;;;6.80;99.90;;;;;;5090003;28;20204;-64
2021/12/23 13:35:12;;;;;;;29.57;17.63;;;6.80;99.90;;;;;;5079803;28;20224;-64
2021/12/23 13:37:46;;;;;;;34.87;17.67;;;7.00;99.90;;;;;;5075605;28;20275;-64
2021/12/23 13:40:24;;;;;;;38.03;18.10;;;6.90;99.90;;;;;;5075199;28;20283;-64
2021/12/23 13:42:50;;;;;;;33.73;17.83;;;6.90;99.90;;;;;;5093177;28;20184;-64
2021/12/23 13:45:16;;;;;;;38.27;19.60;;;6.70;99.90;;;;;;5056434;28;20593;-63
2021/12/23 13:47:42;;;;;;;36.60;20.30;;;6.80;99.90;;;;;;5073417;28;20188;-63
2021/12/23 13:50:09;;;;;;;41.10;18.93;;;6.60;99.90;;;;;;5058351;28;20275;-64
2021/12/23 13:52:40;;;;;;;37.30;18.53;;;6.50;99.90;;;;;;5086856;28;20181;-64